createdAt,value
2022-10-19T00:01:28.838Z,13.50
2022-10-19T00:03:57.326Z,13.46
2022-10-19T00:06:29.274Z,13.40
2022-10-19T00:09:04.750Z,13.36
2022-10-19T00:11:37.630Z,13.33
2022-10-19T00:14:08.056Z,13.32
2022-10-19T00:16:38.443Z,13.32
2022-10-19T00:19:12.385Z,13.31
2022-10-19T00:21:43.354Z,13.30
2022-10-19T00:24:11.668Z,13.29
2022-10-19T00:26:40.073Z,13.27
2022-10-19T00:29:08.690Z,13.25
2022-10-19T00:31:36.870Z,13.23
2022-10-19T00:34:05.082Z,13.16
2022-10-19T00:36:36.273Z,13.17
2022-10-19T00:39:05.995Z,13.14
2022-10-19T00:41:36.224Z,13.12
2022-10-19T00:44:11.781Z,13.09
2022-10-19T00:46:43.715Z,13.06
2022-10-19T00:49:25.048Z,13.02
2022-10-19T00:52:03.000Z,12.97
2022-10-19T00:54:33.664Z,12.93
2022-10-19T00:57:03.426Z,12.89
2022-10-19T00:59:32.857Z,12.85
2022-10-19T01:02:03.697Z,12.82
2022-10-19T01:04:35.146Z,12.80
2022-10-19T01:07:05.355Z,12.79
2022-10-19T01:09:33.878Z,12.79
2022-10-19T01:12:21.833Z,12.79
2022-10-19T01:15:11.687Z,12.78
2022-10-19T01:18:12.082Z,12.80
2022-10-19T01:21:04.728Z,12.80
2022-10-19T01:23:44.683Z,12.79
2022-10-19T01:26:38.365Z,12.80
2022-10-19T01:29:48.078Z,12.79
2022-10-19T01:32:55.326Z,12.79
2022-10-19T01:35:34.851Z,12.80
2022-10-19T01:38:09.225Z,12.82
2022-10-19T01:41:11.311Z,12.83
2022-10-19T01:43:55.469Z,12.85
2022-10-19T01:46:32.402Z,12.87
2022-10-19T01:49:09.990Z,12.88
2022-10-19T01:51:43.968Z,12.92
2022-10-19T01:54:16.371Z,12.91
2022-10-19T01:56:47.712Z,12.89
2022-10-19T01:59:26.459Z,12.85
2022-10-19T02:01:58.277Z,12.83
2022-10-19T02:04:27.277Z,12.78
2022-10-19T02:06:55.988Z,12.76
2022-10-19T02:09:24.098Z,12.73
2022-10-19T02:11:57.618Z,12.71
2022-10-19T02:14:37.946Z,12.68
2022-10-19T02:17:10.201Z,12.67
2022-10-19T02:19:38.343Z,12.66
2022-10-19T02:22:07.820Z,12.65
2022-10-19T02:24:35.933Z,12.65
2022-10-19T02:27:06.647Z,12.64
2022-10-19T02:29:37.072Z,12.65
2022-10-19T02:32:09.236Z,12.65
2022-10-19T02:34:39.655Z,12.64
2022-10-19T02:37:07.858Z,12.67
2022-10-19T02:39:36.119Z,12.68
2022-10-19T02:42:12.164Z,12.69
2022-10-19T02:45:02.644Z,12.67
2022-10-19T02:47:54.186Z,12.66
2022-10-19T02:50:23.534Z,12.65
2022-10-19T02:52:51.834Z,12.64
2022-10-19T02:55:19.986Z,12.64
2022-10-19T02:57:47.877Z,12.65
2022-10-19T03:00:16.098Z,12.66
2022-10-19T03:02:44.892Z,12.64
2022-10-19T03:05:12.947Z,12.64
2022-10-19T03:07:42.412Z,12.62
2022-10-19T03:10:10.373Z,12.62
2022-10-19T03:12:38.353Z,12.60
2022-10-19T03:15:06.931Z,12.56
2022-10-19T03:17:35.973Z,12.53
2022-10-19T03:20:07.713Z,12.49
2022-10-19T03:22:35.759Z,12.47
2022-10-19T03:25:04.128Z,12.45
2022-10-19T03:27:32.648Z,12.38
2022-10-19T03:30:04.366Z,12.39
2022-10-19T03:32:32.376Z,12.34
2022-10-19T03:35:00.344Z,12.33
2022-10-19T03:37:28.351Z,12.31
2022-10-19T03:39:56.286Z,12.29
2022-10-19T03:42:24.526Z,12.26
2022-10-19T03:44:52.597Z,12.23
2022-10-19T03:47:20.656Z,12.21
2022-10-19T03:49:50.377Z,12.21
2022-10-19T03:52:19.770Z,12.19
2022-10-19T03:54:51.281Z,12.16
2022-10-19T03:57:19.399Z,12.13
2022-10-19T03:59:47.378Z,12.09
2022-10-19T04:02:15.461Z,12.09
2022-10-19T04:04:44.518Z,12.07
2022-10-19T04:07:12.603Z,12.06
2022-10-19T04:09:40.680Z,12.04
2022-10-19T04:12:08.853Z,12.01
2022-10-19T04:14:52.423Z,11.99
2022-10-19T04:17:24.656Z,11.99
2022-10-19T04:19:52.729Z,11.98
2022-10-19T04:22:20.699Z,11.98
2022-10-19T04:24:48.712Z,11.98
2022-10-19T04:27:16.774Z,11.98
2022-10-19T04:29:44.832Z,11.98
2022-10-19T04:32:12.842Z,11.97
2022-10-19T04:34:41.030Z,11.97
2022-10-19T04:37:09.770Z,11.87
2022-10-19T04:39:41.192Z,11.96
2022-10-19T04:42:09.283Z,11.96
2022-10-19T04:44:37.687Z,11.94
2022-10-19T04:47:05.875Z,11.92
2022-10-19T04:49:34.026Z,11.92
2022-10-19T04:52:02.624Z,11.90
2022-10-19T04:54:30.931Z,11.89
2022-10-19T04:56:59.308Z,11.88
2022-10-19T04:59:30.481Z,11.88
2022-10-19T05:01:59.248Z,11.87
2022-10-19T05:04:29.084Z,11.84
2022-10-19T05:06:57.376Z,11.81
2022-10-19T05:09:25.512Z,11.79
2022-10-19T05:11:53.618Z,11.78
2022-10-19T05:14:21.921Z,11.76
2022-10-19T05:16:50.275Z,11.76
2022-10-19T05:19:18.604Z,11.74
2022-10-19T05:21:46.970Z,11.69
2022-10-19T05:24:14.974Z,11.71
2022-10-19T05:26:43.080Z,11.71
2022-10-19T05:29:13.385Z,11.71
2022-10-19T05:31:42.040Z,11.70
2022-10-19T05:34:10.153Z,11.66
2022-10-19T05:36:39.725Z,11.64
2022-10-19T05:39:17.033Z,11.63
2022-10-19T05:41:47.691Z,11.61
2022-10-19T05:44:22.037Z,11.59
2022-10-19T05:46:51.852Z,11.56
2022-10-19T05:49:21.632Z,11.53
2022-10-19T05:51:50.432Z,11.52
2022-10-19T05:54:20.367Z,11.50
2022-10-19T05:56:50.509Z,11.48
2022-10-19T05:59:20.494Z,11.48
2022-10-19T06:01:50.261Z,11.50
2022-10-19T06:04:20.214Z,11.50
2022-10-19T06:06:48.554Z,11.51
2022-10-19T06:09:16.999Z,11.52
2022-10-19T06:11:45.703Z,11.54
2022-10-19T06:14:16.402Z,11.54
2022-10-19T06:16:46.331Z,11.55
2022-10-19T06:19:15.188Z,11.55
2022-10-19T06:21:46.167Z,11.57
2022-10-19T06:24:15.988Z,11.57
2022-10-19T06:26:44.266Z,11.58
2022-10-19T06:29:12.725Z,11.60
2022-10-19T06:31:41.244Z,11.59
2022-10-19T06:34:09.484Z,11.59
2022-10-19T06:36:38.567Z,11.60
2022-10-19T06:39:07.864Z,11.61
2022-10-19T06:41:37.219Z,11.63
2022-10-19T06:44:21.058Z,11.63
2022-10-19T06:46:51.312Z,11.63
2022-10-19T06:49:22.643Z,11.63
2022-10-19T06:51:54.006Z,11.64
2022-10-19T06:54:25.619Z,11.63
2022-10-19T06:56:55.422Z,11.66
2022-10-19T06:59:26.650Z,11.70
2022-10-19T07:01:55.328Z,11.71
2022-10-19T07:04:26.647Z,11.73
2022-10-19T07:06:56.984Z,11.75
2022-10-19T07:09:25.480Z,11.77
2022-10-19T07:11:54.229Z,11.76
2022-10-19T07:14:28.861Z,11.77
2022-10-19T07:16:58.207Z,11.69
2022-10-19T07:19:26.975Z,11.81
2022-10-19T07:21:55.327Z,11.84
2022-10-19T07:24:23.643Z,11.87
2022-10-19T07:26:52.284Z,11.88
2022-10-19T07:29:20.705Z,11.88
2022-10-19T07:31:49.151Z,11.90
2022-10-19T07:34:17.715Z,11.94
2022-10-19T07:36:48.535Z,11.95
2022-10-19T07:39:17.671Z,11.96
2022-10-19T07:41:46.777Z,11.99
2022-10-19T07:44:16.295Z,11.98
2022-10-19T07:46:45.179Z,11.99
2022-10-19T07:49:16.658Z,12.00
2022-10-19T07:51:46.488Z,12.00
2022-10-19T07:54:15.483Z,12.03
2022-10-19T07:56:44.058Z,12.05
2022-10-19T07:59:14.557Z,12.06
2022-10-19T08:01:44.139Z,12.09
2022-10-19T08:04:55.571Z,12.09
2022-10-19T08:07:02.051Z,12.10
2022-10-19T08:09:52.086Z,12.07
2022-10-19T08:12:20.724Z,12.14
2022-10-19T08:14:50.403Z,12.15
2022-10-19T08:17:20.021Z,12.19
2022-10-19T08:19:48.749Z,12.22
2022-10-19T08:22:17.579Z,12.25
2022-10-19T08:24:46.232Z,12.27
2022-10-19T08:27:15.476Z,12.31
2022-10-19T08:29:44.160Z,12.33
2022-10-19T08:32:16.193Z,12.39
2022-10-19T08:34:45.499Z,12.41
2022-10-19T08:37:25.859Z,12.42
2022-10-19T08:40:02.798Z,12.41
2022-10-19T08:42:49.921Z,12.42
2022-10-19T08:45:22.497Z,12.43
2022-10-19T08:47:57.418Z,12.43
2022-10-19T08:50:35.361Z,12.45
2022-10-19T08:53:19.548Z,12.51
2022-10-19T08:55:50.934Z,12.59
2022-10-19T08:58:31.757Z,12.66
2022-10-19T09:01:14.228Z,12.71
2022-10-19T09:04:21.937Z,12.74
2022-10-19T09:07:31.396Z,12.83
2022-10-19T09:10:15.900Z,12.89
2022-10-19T09:13:00.692Z,12.89
2022-10-19T09:15:38.982Z,12.91
2022-10-19T09:18:28.529Z,12.90
2022-10-19T09:21:46.112Z,12.90
2022-10-19T09:24:47.947Z,12.87
2022-10-19T09:27:26.113Z,12.84
2022-10-19T09:29:56.412Z,12.89
2022-10-19T09:32:31.722Z,12.98
2022-10-19T09:35:03.530Z,13.07
2022-10-19T09:37:37.033Z,13.15
2022-10-19T09:40:06.693Z,13.15
2022-10-19T09:42:37.047Z,13.26
2022-10-19T09:45:17.752Z,13.34
2022-10-19T09:47:49.116Z,13.40
2022-10-19T09:50:24.216Z,13.47
2022-10-19T09:52:56.771Z,13.53
2022-10-19T09:55:44.390Z,13.57
2022-10-19T09:58:15.620Z,13.62
2022-10-19T10:00:47.405Z,13.67
2022-10-19T10:03:43.828Z,13.71
2022-10-19T10:06:17.466Z,13.73
2022-10-19T10:08:51.113Z,13.75
2022-10-19T10:11:30.348Z,13.76
2022-10-19T10:14:07.513Z,13.80
2022-10-19T10:16:38.386Z,13.88
2022-10-19T10:19:09.203Z,13.93
2022-10-19T10:21:48.516Z,14.00
2022-10-19T10:24:25.469Z,14.04
2022-10-19T10:26:57.062Z,14.02
2022-10-19T10:29:30.266Z,13.96
2022-10-19T10:32:20.359Z,13.93
2022-10-19T10:34:52.798Z,13.89
2022-10-19T10:37:35.081Z,13.83
2022-10-19T10:40:06.054Z,13.71
2022-10-19T10:42:43.756Z,13.61
2022-10-19T10:45:23.427Z,13.50
2022-10-19T10:47:52.714Z,13.43
2022-10-19T10:50:35.020Z,13.36
2022-10-19T10:53:06.541Z,13.32
2022-10-19T10:55:34.846Z,13.29
2022-10-19T10:58:15.633Z,13.30
2022-10-19T11:00:45.532Z,13.37
2022-10-19T11:03:24.080Z,13.48
2022-10-19T11:05:57.729Z,13.56
2022-10-19T11:08:41.387Z,13.59
2022-10-19T11:11:24.718Z,13.66
2022-10-19T11:14:19.108Z,13.74
2022-10-19T11:16:52.999Z,13.82
2022-10-19T11:19:27.670Z,13.93
2022-10-19T11:22:23.658Z,14.02
2022-10-19T11:25:18.649Z,14.04
2022-10-19T11:27:58.984Z,13.97
2022-10-19T11:30:28.091Z,13.86
2022-10-19T11:33:07.147Z,13.76
2022-10-19T11:35:54.427Z,13.68
2022-10-19T11:38:41.629Z,13.60
2022-10-19T11:41:17.761Z,13.50
2022-10-19T11:44:05.182Z,13.38
2022-10-19T11:46:42.997Z,13.29
2022-10-19T11:49:22.202Z,13.21
2022-10-19T11:51:59.423Z,13.13
2022-10-19T11:54:41.816Z,13.09
2022-10-19T11:57:30.074Z,13.07
2022-10-19T12:00:04.064Z,13.11
2022-10-19T12:02:45.108Z,13.20
2022-10-19T12:05:22.541Z,13.26
2022-10-19T12:08:05.036Z,13.26
2022-10-19T12:10:42.179Z,13.22
2022-10-19T12:13:14.614Z,13.22
2022-10-19T12:15:55.795Z,13.18
2022-10-19T12:18:23.903Z,13.12
2022-10-19T12:20:57.221Z,13.08
2022-10-19T12:23:31.361Z,13.04
2022-10-19T12:26:03.873Z,13.02
2022-10-19T12:28:35.500Z,12.99
2022-10-19T12:31:05.770Z,12.95
2022-10-19T12:33:36.854Z,12.96
2022-10-19T12:36:22.668Z,12.95
2022-10-19T12:38:59.652Z,12.98
2022-10-19T12:41:45.824Z,13.00
2022-10-19T12:44:47.692Z,13.03
2022-10-19T12:47:19.390Z,13.06
2022-10-19T12:49:58.189Z,13.07
2022-10-19T12:52:52.951Z,13.07
2022-10-19T12:55:35.027Z,13.05
2022-10-19T12:58:22.245Z,13.03
2022-10-19T13:01:04.062Z,12.98
2022-10-19T13:03:42.245Z,12.99
2022-10-19T13:06:16.146Z,12.99
2022-10-19T13:08:53.962Z,12.97
2022-10-19T13:11:22.705Z,12.94
2022-10-19T13:14:25.701Z,12.90
2022-10-19T13:16:58.732Z,12.88
2022-10-19T13:19:28.650Z,12.88
2022-10-19T13:22:02.686Z,12.86
2022-10-19T13:24:35.062Z,12.81
2022-10-19T13:27:03.654Z,12.75
2022-10-19T13:29:38.460Z,12.73
2022-10-19T13:32:43.572Z,12.71
2022-10-19T13:35:26.813Z,12.67
2022-10-19T13:38:17.049Z,12.66
2022-10-19T13:40:48.056Z,12.58
2022-10-19T13:43:41.178Z,12.53
2022-10-19T13:46:12.822Z,12.48
2022-10-19T13:49:04.526Z,12.46
2022-10-19T13:51:51.448Z,12.45
2022-10-19T13:54:47.012Z,12.46
2022-10-19T13:57:37.614Z,12.50
2022-10-19T14:00:18.422Z,12.53
2022-10-19T14:03:08.009Z,12.58
2022-10-19T14:06:04.175Z,12.67
2022-10-19T14:08:56.753Z,12.75
2022-10-19T14:11:35.460Z,12.81
2022-10-19T14:14:25.218Z,12.86
2022-10-19T14:16:58.247Z,12.88
2022-10-19T14:19:33.062Z,12.92
2022-10-19T14:22:23.666Z,12.95
2022-10-19T14:24:52.335Z,12.99
2022-10-19T14:27:24.977Z,12.99
2022-10-19T14:29:54.439Z,12.99
2022-10-19T14:32:27.673Z,13.01
2022-10-19T14:41:37.785Z,13.09
2022-10-19T14:44:43.190Z,13.05
2022-10-19T14:47:21.855Z,13.02
2022-10-19T14:49:51.538Z,13.02
2022-10-19T14:52:30.391Z,13.06
2022-10-19T14:55:00.466Z,13.05
2022-10-19T14:57:35.121Z,12.99
2022-10-19T15:00:15.252Z,13.01
2022-10-19T15:02:48.703Z,12.97
2022-10-19T15:05:24.499Z,12.91
2022-10-19T15:07:55.255Z,12.91
2022-10-19T15:10:44.982Z,12.88
2022-10-19T15:13:42.204Z,12.85
2022-10-19T15:16:32.070Z,12.77
2022-10-19T15:19:24.928Z,12.75
2022-10-19T15:22:21.821Z,12.74
2022-10-19T15:25:02.504Z,12.74
2022-10-19T15:27:48.069Z,12.72
2022-10-19T15:30:22.249Z,12.69
2022-10-19T15:32:55.648Z,12.65
2022-10-19T15:35:30.241Z,12.59
2022-10-19T15:38:06.661Z,12.53
2022-10-19T15:40:39.154Z,12.46
2022-10-19T15:43:37.115Z,12.36
2022-10-19T15:46:20.034Z,12.32
2022-10-19T15:48:58.437Z,12.26
2022-10-19T15:51:27.367Z,12.19
2022-10-19T15:54:02.558Z,12.12
2022-10-19T15:56:36.042Z,12.06
2022-10-19T15:59:20.574Z,12.00
2022-10-19T16:01:52.580Z,11.92
2022-10-19T16:04:22.852Z,11.85
2022-10-19T16:06:51.124Z,11.77
2022-10-19T16:09:21.945Z,11.72
2022-10-19T16:11:56.735Z,11.66
2022-10-19T16:14:27.018Z,11.62
2022-10-19T16:16:56.037Z,11.57
2022-10-19T16:19:24.698Z,11.53
2022-10-19T16:21:53.658Z,11.47
2022-10-19T16:24:22.105Z,11.42
2022-10-19T16:26:50.780Z,11.34
2022-10-19T16:29:19.108Z,11.27
2022-10-19T16:31:47.391Z,11.18
2022-10-19T16:34:15.904Z,11.10
2022-10-19T16:36:45.896Z,11.05
2022-10-19T16:39:15.621Z,10.99
2022-10-19T16:41:44.594Z,10.96
2022-10-19T16:44:23.319Z,10.97
2022-10-19T16:47:00.154Z,10.98
2022-10-19T16:49:30.042Z,11.01
2022-10-19T16:52:02.168Z,11.05
2022-10-19T16:54:33.506Z,11.08
2022-10-19T16:57:08.638Z,11.12
2022-10-19T16:59:39.534Z,11.15
2022-10-19T17:02:11.412Z,11.18
2022-10-19T17:04:41.740Z,11.19
2022-10-19T17:07:18.991Z,11.20
2022-10-19T17:10:00.294Z,11.22
2022-10-19T17:12:31.781Z,11.22
2022-10-19T17:15:29.937Z,11.24
2022-10-19T17:17:48.679Z,11.25
2022-10-19T17:20:18.118Z,11.29
2022-10-19T17:22:48.158Z,11.33
2022-10-19T17:25:17.160Z,11.30
2022-10-19T17:27:47.967Z,11.35
2022-10-19T17:30:21.963Z,11.38
2022-10-19T17:32:54.614Z,11.40
2022-10-19T17:35:23.070Z,11.42
2022-10-19T17:37:52.179Z,11.44
2022-10-19T17:40:22.835Z,11.49
2022-10-19T17:42:52.898Z,11.58
2022-10-19T17:45:23.065Z,11.65
2022-10-19T17:47:51.623Z,11.72
2022-10-19T17:50:21.836Z,11.74
2022-10-19T17:52:53.068Z,11.75
2022-10-19T17:55:27.355Z,11.76
2022-10-19T17:57:57.561Z,11.78
2022-10-19T18:00:27.333Z,11.76
2022-10-19T18:02:57.145Z,11.77
2022-10-19T18:05:26.504Z,11.73
2022-10-19T18:08:02.242Z,11.69
2022-10-19T18:10:36.401Z,11.66
2022-10-19T18:13:07.166Z,11.63
2022-10-19T18:15:35.910Z,11.62
2022-10-19T18:18:04.673Z,11.60
2022-10-19T18:20:34.287Z,11.59
2022-10-19T18:23:05.875Z,11.59
2022-10-19T18:25:53.545Z,11.55
2022-10-19T18:28:22.936Z,11.53
2022-10-19T18:30:51.838Z,11.48
2022-10-19T18:33:20.291Z,11.44
2022-10-19T18:35:49.009Z,11.34
2022-10-19T18:38:28.895Z,11.28
2022-10-19T18:43:54.030Z,11.21
2022-10-19T18:46:26.914Z,11.14
2022-10-19T18:49:03.128Z,11.17
2022-10-19T18:51:33.718Z,11.15
2022-10-19T18:54:05.269Z,11.19
2022-10-19T18:56:38.320Z,11.17
2022-10-19T18:59:16.389Z,11.18
2022-10-19T19:01:45.881Z,11.17
2022-10-19T19:04:15.549Z,11.16
2022-10-19T19:06:47.951Z,11.16
2022-10-19T19:09:19.481Z,11.15
2022-10-19T19:11:48.592Z,11.14
2022-10-19T19:14:21.209Z,11.14
2022-10-19T19:16:52.659Z,11.12
2022-10-19T19:19:24.700Z,11.08
2022-10-19T19:21:58.336Z,11.03
2022-10-19T19:24:32.252Z,10.99
2022-10-19T19:27:01.463Z,10.94
2022-10-19T19:29:31.406Z,10.90
2022-10-19T19:32:00.175Z,10.87
2022-10-19T19:34:29.622Z,10.85
2022-10-19T19:37:00.881Z,10.83
2022-10-19T19:39:31.851Z,10.81
2022-10-19T19:42:01.937Z,10.76
2022-10-19T19:44:32.431Z,10.72
2022-10-19T19:47:03.109Z,10.69
2022-10-19T19:49:33.496Z,10.67
2022-10-19T19:52:05.364Z,10.62
2022-10-19T19:54:34.454Z,10.61
2022-10-19T19:57:03.276Z,10.62
2022-10-19T19:59:33.371Z,10.68
2022-10-19T20:02:02.629Z,10.70
2022-10-19T20:04:35.031Z,10.70
2022-10-19T20:07:05.961Z,10.56
2022-10-19T20:09:35.832Z,10.47
2022-10-19T20:12:05.573Z,10.34
2022-10-19T20:14:34.163Z,10.24
2022-10-19T20:17:02.686Z,10.19
2022-10-19T20:19:31.427Z,10.17
2022-10-19T20:22:00.483Z,10.12
2022-10-19T20:24:29.287Z,10.10
2022-10-19T20:26:58.502Z,10.12
2022-10-19T20:29:27.065Z,10.11
2022-10-19T20:31:55.580Z,10.07
2022-10-19T20:34:27.198Z,10.03
2022-10-19T20:36:56.711Z,9.97
2022-10-19T20:39:25.674Z,9.96
2022-10-19T20:41:55.183Z,9.95
2022-10-19T20:44:24.371Z,9.95
2022-10-19T20:46:53.514Z,9.98
2022-10-19T20:49:24.802Z,10.00
2022-10-19T20:51:55.719Z,10.01
2022-10-19T20:54:29.274Z,9.95
2022-10-19T20:57:01.825Z,9.86
2022-10-19T20:59:35.440Z,9.96
2022-10-19T21:02:06.685Z,9.98
2022-10-19T21:04:35.156Z,9.99
2022-10-19T21:07:05.162Z,10.00
2022-10-19T21:09:33.944Z,10.00
2022-10-19T21:12:02.313Z,10.03
2022-10-19T21:14:30.830Z,10.03
2022-10-19T21:17:00.368Z,10.03
2022-10-19T21:19:29.989Z,10.02
2022-10-19T21:22:02.351Z,10.02
2022-10-19T21:24:36.561Z,9.99
2022-10-19T21:27:09.387Z,9.93
2022-10-19T21:29:42.189Z,9.85
2022-10-19T21:32:10.705Z,9.77
2022-10-19T21:34:39.141Z,9.77
2022-10-19T21:37:08.401Z,9.72
2022-10-19T21:39:37.305Z,9.73
2022-10-19T21:42:09.175Z,9.72
2022-10-19T21:44:38.537Z,9.70
2022-10-19T21:47:08.071Z,9.66
2022-10-19T21:49:36.287Z,9.62
2022-10-19T21:52:04.672Z,9.61
2022-10-19T21:54:33.146Z,9.62
2022-10-19T21:57:02.961Z,9.65
2022-10-19T21:59:31.227Z,9.66
2022-10-19T22:01:59.895Z,9.64
2022-10-19T22:05:08.515Z,9.55
2022-10-19T22:07:37.326Z,9.53
2022-10-19T22:10:06.851Z,9.54
2022-10-19T22:12:38.256Z,9.64
2022-10-19T22:15:07.806Z,9.69
2022-10-19T22:17:36.038Z,9.71
2022-10-19T22:20:04.868Z,9.67
2022-10-19T22:22:33.468Z,9.62
2022-10-19T22:25:02.130Z,9.60
2022-10-19T22:27:30.534Z,9.60
2022-10-19T22:29:58.667Z,9.59
2022-10-19T22:32:26.733Z,9.59
2022-10-19T22:34:54.704Z,9.58
2022-10-19T22:37:22.770Z,9.59
2022-10-19T22:39:50.803Z,9.60
2022-10-19T22:42:18.792Z,9.66
2022-10-19T22:44:46.786Z,9.67
2022-10-19T22:47:14.775Z,9.68
2022-10-19T22:49:42.724Z,9.68
2022-10-19T22:52:11.576Z,9.71
2022-10-19T22:54:39.704Z,9.72
2022-10-19T22:57:08.298Z,9.72
2022-10-19T22:59:36.310Z,9.72
2022-10-19T23:02:04.779Z,9.70
2022-10-19T23:04:32.956Z,9.68
2022-10-19T23:07:01.155Z,9.63
2022-10-19T23:09:29.199Z,9.58
2022-10-19T23:11:57.217Z,9.56
2022-10-19T23:14:25.402Z,9.53
2022-10-19T23:16:53.378Z,9.49
2022-10-19T23:19:21.454Z,9.49
2022-10-19T23:21:49.594Z,9.47
2022-10-19T23:24:20.676Z,9.44
2022-10-19T23:26:48.829Z,9.40
2022-10-19T23:29:16.883Z,9.36
2022-10-19T23:31:44.891Z,9.31
2022-10-19T23:34:15.506Z,9.25
2022-10-19T23:36:43.658Z,9.20
2022-10-19T23:39:11.847Z,9.14
2022-10-19T23:41:39.904Z,9.05
2022-10-19T23:44:09.807Z,8.97
2022-10-19T23:46:40.852Z,8.89
2022-10-19T23:49:08.934Z,8.83
2022-10-19T23:51:37.794Z,8.81
2022-10-19T23:54:06.061Z,8.76
2022-10-19T23:56:34.222Z,8.72
2022-10-19T23:59:02.386Z,8.67
